createdAt,value
2023-03-10T00:00:28.056Z,0.00
2023-03-10T00:01:00.540Z,0.00
2023-03-10T00:01:32.997Z,0.00
2023-03-10T00:02:05.526Z,0.32
2023-03-10T00:02:38.043Z,2.08
2023-03-10T00:03:10.593Z,0.40
2023-03-10T00:03:43.084Z,0.00
2023-03-10T00:04:15.632Z,0.00
2023-03-10T00:04:48.063Z,0.32
2023-03-10T00:05:20.572Z,0.00
2023-03-10T00:05:53.040Z,0.00
2023-03-10T00:06:25.495Z,0.00
2023-03-10T00:06:58.014Z,0.64
2023-03-10T00:07:30.495Z,0.64
2023-03-10T00:08:03.043Z,0.08
2023-03-10T00:08:35.496Z,0.16
2023-03-10T00:09:07.976Z,0.08
2023-03-10T00:09:40.479Z,0.72
2023-03-10T00:10:12.954Z,0.00
2023-03-10T00:10:45.470Z,0.00
2023-03-10T00:11:17.937Z,1.52
2023-03-10T00:11:50.422Z,1.20
2023-03-10T00:12:22.917Z,0.08
2023-03-10T00:12:55.388Z,0.08
2023-03-10T00:13:27.970Z,0.32
2023-03-10T00:14:00.442Z,0.72
2023-03-10T00:14:32.988Z,0.64
2023-03-10T00:15:05.471Z,0.00
2023-03-10T00:15:38.052Z,0.00
2023-03-10T00:16:10.589Z,1.60
2023-03-10T00:16:42.945Z,1.04
2023-03-10T00:17:15.436Z,0.64
2023-03-10T00:17:47.910Z,0.96
2023-03-10T00:18:20.388Z,0.40
2023-03-10T00:18:52.924Z,0.00
2023-03-10T00:19:25.427Z,0.00
2023-03-10T00:19:57.892Z,0.24
2023-03-10T00:20:30.390Z,0.40
2023-03-10T00:21:02.911Z,0.00
2023-03-10T00:21:35.410Z,0.00
2023-03-10T00:22:07.927Z,0.40
2023-03-10T00:22:40.421Z,1.20
2023-03-10T00:23:12.909Z,1.04
2023-03-10T00:23:45.426Z,0.24
2023-03-10T00:24:17.869Z,0.08
2023-03-10T00:24:50.315Z,0.88
2023-03-10T00:25:22.766Z,1.36
2023-03-10T00:25:55.270Z,0.00
2023-03-10T00:26:27.711Z,0.08
2023-03-10T00:27:00.195Z,0.00
2023-03-10T00:27:32.710Z,0.56
2023-03-10T00:28:05.200Z,0.16
2023-03-10T00:28:37.699Z,0.16
2023-03-10T00:29:10.148Z,0.00
2023-03-10T00:29:42.616Z,0.16
2023-03-10T00:30:15.089Z,1.60
2023-03-10T00:30:47.561Z,0.80
2023-03-10T00:31:20.104Z,0.00
2023-03-10T00:31:52.535Z,0.08
2023-03-10T00:32:25.067Z,0.00
2023-03-10T00:32:57.505Z,0.24
2023-03-10T00:33:29.963Z,0.00
2023-03-10T00:34:02.439Z,0.00
2023-03-10T00:34:34.917Z,0.00
2023-03-10T00:35:07.388Z,0.00
2023-03-10T00:35:39.972Z,0.16
2023-03-10T00:36:12.420Z,0.00
2023-03-10T00:36:44.844Z,0.00
2023-03-10T00:37:17.420Z,0.24
2023-03-10T00:37:49.916Z,0.08
2023-03-10T00:38:22.371Z,0.48
2023-03-10T00:38:54.868Z,1.20
2023-03-10T00:39:27.341Z,0.16
2023-03-10T00:39:59.830Z,0.00
2023-03-10T00:40:32.305Z,0.00
2023-03-10T00:41:04.812Z,0.64
2023-03-10T00:41:37.375Z,0.88
2023-03-10T00:42:09.871Z,1.44
2023-03-10T00:42:42.324Z,2.32
2023-03-10T00:43:14.797Z,1.12
2023-03-10T00:43:47.249Z,2.96
2023-03-10T00:44:19.760Z,0.88
2023-03-10T00:44:52.210Z,0.16
2023-03-10T00:45:24.704Z,0.00
2023-03-10T00:45:57.213Z,0.88
2023-03-10T00:46:29.669Z,0.80
2023-03-10T00:47:02.105Z,0.08
2023-03-10T00:47:34.640Z,0.48
2023-03-10T00:48:07.079Z,1.20
2023-03-10T00:48:39.567Z,0.24
2023-03-10T00:49:12.013Z,0.16
2023-03-10T00:49:44.468Z,0.32
2023-03-10T00:50:16.980Z,0.40
2023-03-10T00:50:49.430Z,0.64
2023-03-10T00:51:21.931Z,0.00
2023-03-10T00:51:54.402Z,2.56
2023-03-10T00:52:26.873Z,2.16
2023-03-10T00:52:59.416Z,1.52
2023-03-10T00:53:31.886Z,1.28
2023-03-10T00:54:04.360Z,0.16
2023-03-10T00:54:36.828Z,0.00
2023-03-10T00:55:09.328Z,0.72
2023-03-10T00:55:41.783Z,0.24
2023-03-10T00:56:14.414Z,0.00
2023-03-10T00:56:46.912Z,0.24
2023-03-10T00:57:19.382Z,0.00
2023-03-10T00:57:51.857Z,0.00
2023-03-10T00:58:24.330Z,0.00
2023-03-10T00:58:56.773Z,0.00
2023-03-10T00:59:32.868Z,0.48
2023-03-10T01:00:01.777Z,0.88
2023-03-10T01:00:34.390Z,0.32
2023-03-10T01:01:06.886Z,0.48
2023-03-10T01:01:39.493Z,0.00
2023-03-10T01:02:11.851Z,0.32
2023-03-10T01:02:44.360Z,0.00
2023-03-10T01:03:16.814Z,0.00
2023-03-10T01:03:49.298Z,0.00
2023-03-10T01:04:21.778Z,0.00
2023-03-10T01:04:54.218Z,0.00
2023-03-10T01:05:26.668Z,0.00
2023-03-10T01:05:59.171Z,0.00
2023-03-10T01:06:31.631Z,0.00
2023-03-10T01:07:04.106Z,1.28
2023-03-10T01:07:36.793Z,2.72
2023-03-10T01:08:09.305Z,3.36
2023-03-10T01:08:41.815Z,3.12
2023-03-10T01:09:14.262Z,2.16
2023-03-10T01:09:46.764Z,0.32
2023-03-10T01:10:19.217Z,0.56
2023-03-10T01:10:51.688Z,0.48
2023-03-10T01:11:24.127Z,0.08
2023-03-10T01:11:56.589Z,0.00
2023-03-10T01:12:29.056Z,0.00
2023-03-10T01:13:01.510Z,0.00
2023-03-10T01:13:33.958Z,0.00
2023-03-10T01:14:06.471Z,0.40
2023-03-10T01:14:38.939Z,0.40
2023-03-10T01:15:11.420Z,0.00
2023-03-10T01:15:43.929Z,0.00
2023-03-10T01:16:16.442Z,0.08
2023-03-10T01:16:48.811Z,0.16
2023-03-10T01:17:21.267Z,0.00
2023-03-10T01:17:53.778Z,0.00
2023-03-10T01:18:26.292Z,0.00
2023-03-10T01:18:58.777Z,0.00
2023-03-10T01:19:31.261Z,0.00
2023-03-10T01:20:03.755Z,0.00
2023-03-10T01:20:36.231Z,0.00
2023-03-10T01:21:08.731Z,0.48
2023-03-10T01:21:41.234Z,0.00
2023-03-10T01:22:13.736Z,0.00
2023-03-10T01:22:46.261Z,0.00
2023-03-10T01:23:18.731Z,0.00
2023-03-10T01:23:51.192Z,0.00
2023-03-10T01:24:23.664Z,0.00
2023-03-10T01:24:56.145Z,0.00
2023-03-10T01:25:28.632Z,0.00
2023-03-10T01:26:01.143Z,0.00
2023-03-10T01:26:33.607Z,0.00
2023-03-10T01:27:06.065Z,0.00
2023-03-10T01:27:38.522Z,0.00
2023-03-10T01:28:10.990Z,0.08
2023-03-10T01:28:43.497Z,0.08
2023-03-10T01:29:16.083Z,0.00
2023-03-10T01:29:48.580Z,0.00
2023-03-10T01:30:21.059Z,0.00
2023-03-10T01:30:53.559Z,0.00
2023-03-10T01:31:25.987Z,0.00
2023-03-10T01:31:58.452Z,0.00
2023-03-10T01:32:30.935Z,0.00
2023-03-10T01:33:03.407Z,0.00
2023-03-10T01:33:35.886Z,0.00
2023-03-10T01:34:08.357Z,0.00
2023-03-10T01:34:40.839Z,0.00
2023-03-10T01:35:13.302Z,0.00
2023-03-10T01:35:45.783Z,0.00
2023-03-10T01:36:18.288Z,0.00
2023-03-10T01:36:50.692Z,0.00
2023-03-10T01:37:23.178Z,0.00
2023-03-10T01:37:55.647Z,0.00
2023-03-10T01:38:28.144Z,0.00
2023-03-10T01:39:00.655Z,0.00
2023-03-10T01:39:33.161Z,0.00
2023-03-10T01:40:05.644Z,0.00
2023-03-10T01:40:38.128Z,0.00
2023-03-10T01:41:10.654Z,0.00
2023-03-10T01:41:43.166Z,0.00
2023-03-10T01:42:15.688Z,0.00
2023-03-10T01:42:48.174Z,0.56
2023-03-10T01:43:20.677Z,0.00
2023-03-10T01:43:53.306Z,0.00
2023-03-10T01:44:25.778Z,0.00
2023-03-10T01:44:58.307Z,0.16
2023-03-10T01:45:30.776Z,0.08
2023-03-10T01:46:03.265Z,1.84
2023-03-10T01:46:35.791Z,0.08
2023-03-10T01:47:08.219Z,0.00
2023-03-10T01:47:40.725Z,0.00
2023-03-10T01:48:13.287Z,0.00
2023-03-10T01:48:45.791Z,0.00
2023-03-10T01:49:18.289Z,0.00
2023-03-10T01:49:50.782Z,0.00
2023-03-10T01:50:23.249Z,0.00
2023-03-10T01:50:55.770Z,0.00
2023-03-10T01:51:28.262Z,0.00
2023-03-10T01:52:00.791Z,0.00
2023-03-10T01:52:33.393Z,0.00
2023-03-10T01:53:05.869Z,0.00
2023-03-10T01:53:38.358Z,0.00
2023-03-10T01:54:10.855Z,0.00
2023-03-10T01:54:43.357Z,0.00
2023-03-10T01:55:15.815Z,0.00
2023-03-10T01:55:48.305Z,0.08
2023-03-10T01:56:20.794Z,0.08
2023-03-10T01:56:53.217Z,0.00
2023-03-10T01:57:25.668Z,0.00
2023-03-10T01:57:58.153Z,0.00
2023-03-10T01:58:30.614Z,0.00
2023-03-10T01:59:03.101Z,0.00
2023-03-10T01:59:35.634Z,0.00
2023-03-10T02:00:08.103Z,0.00
2023-03-10T02:00:40.610Z,0.00
2023-03-10T02:01:13.102Z,0.00
2023-03-10T02:01:45.555Z,0.00
2023-03-10T02:02:18.042Z,0.00
2023-03-10T02:02:50.473Z,0.00
2023-03-10T02:03:22.959Z,0.00
2023-03-10T02:03:55.498Z,0.00
2023-03-10T02:04:27.998Z,0.00
2023-03-10T02:05:00.471Z,0.00
2023-03-10T02:05:32.952Z,0.00
2023-03-10T02:06:05.422Z,0.00
2023-03-10T02:06:37.946Z,0.00
2023-03-10T02:07:10.447Z,0.00
2023-03-10T02:07:42.909Z,0.00
2023-03-10T02:08:15.399Z,0.00
2023-03-10T02:08:47.880Z,0.00
2023-03-10T02:09:20.347Z,0.00
2023-03-10T02:09:52.818Z,0.00
2023-03-10T02:10:25.306Z,0.00
2023-03-10T02:10:57.743Z,0.00
2023-03-10T02:11:30.240Z,0.08
2023-03-10T02:12:02.782Z,0.08
2023-03-10T02:12:35.252Z,0.72
2023-03-10T02:13:07.738Z,3.28
2023-03-10T02:13:40.225Z,5.68
2023-03-10T02:14:12.781Z,6.24
2023-03-10T02:14:45.254Z,3.92
2023-03-10T02:15:17.726Z,2.24
2023-03-10T02:15:50.212Z,2.00
2023-03-10T02:16:22.733Z,3.68
2023-03-10T02:16:55.302Z,0.16
2023-03-10T02:17:27.809Z,1.20
2023-03-10T02:18:00.250Z,0.08
2023-03-10T02:18:32.735Z,0.16
2023-03-10T02:19:05.234Z,0.72
2023-03-10T02:19:37.671Z,0.32
2023-03-10T02:20:10.140Z,1.44
2023-03-10T02:20:42.591Z,0.16
2023-03-10T02:21:15.101Z,0.40
2023-03-10T02:21:47.617Z,1.52
2023-03-10T02:22:20.083Z,0.64
2023-03-10T02:22:52.528Z,0.80
2023-03-10T02:23:25.044Z,0.40
2023-03-10T02:24:01.489Z,0.32
2023-03-10T02:24:30.006Z,0.56
2023-03-10T02:25:02.483Z,1.12
2023-03-10T02:25:34.947Z,0.24
2023-03-10T02:26:07.411Z,0.00
2023-03-10T02:26:39.850Z,0.80
2023-03-10T02:27:12.310Z,0.00
2023-03-10T02:27:44.762Z,0.24
2023-03-10T02:28:17.215Z,0.96
2023-03-10T02:28:49.691Z,0.88
2023-03-10T02:29:22.146Z,0.32
2023-03-10T02:29:59.135Z,1.76
2023-03-10T02:30:27.078Z,0.64
2023-03-10T02:30:59.522Z,2.32
2023-03-10T02:31:32.092Z,1.12
2023-03-10T02:32:04.572Z,0.08
2023-03-10T02:32:37.023Z,0.88
2023-03-10T02:33:09.532Z,0.32
2023-03-10T02:33:42.080Z,0.00
2023-03-10T02:34:14.535Z,0.08
2023-03-10T02:34:47.033Z,0.16
2023-03-10T02:35:19.470Z,0.32
2023-03-10T02:35:52.096Z,0.16
2023-03-10T02:36:24.458Z,0.00
2023-03-10T02:36:56.921Z,0.00
2023-03-10T02:37:29.390Z,0.32
2023-03-10T02:38:01.925Z,0.00
2023-03-10T02:38:34.382Z,0.56
2023-03-10T02:39:06.857Z,0.48
2023-03-10T02:39:39.294Z,0.96
2023-03-10T02:40:11.767Z,1.28
2023-03-10T02:40:44.236Z,0.00
2023-03-10T02:41:16.675Z,0.00
2023-03-10T02:41:49.115Z,0.00
2023-03-10T02:42:21.572Z,0.16
2023-03-10T02:42:54.047Z,0.16
2023-03-10T02:43:26.510Z,0.08
2023-03-10T02:43:59.021Z,0.00
2023-03-10T02:44:31.493Z,0.00
2023-03-10T02:45:04.017Z,0.00
2023-03-10T02:45:36.568Z,0.08
2023-03-10T02:46:09.076Z,0.00
2023-03-10T02:46:41.431Z,0.00
2023-03-10T02:47:13.892Z,0.00
2023-03-10T02:47:46.340Z,0.48
2023-03-10T02:48:18.854Z,0.16
2023-03-10T02:48:51.434Z,0.48
2023-03-10T02:49:23.911Z,0.08
2023-03-10T02:49:56.403Z,0.00
2023-03-10T02:50:28.878Z,0.00
2023-03-10T02:51:01.335Z,0.00
2023-03-10T02:51:33.800Z,0.00
2023-03-10T02:52:06.275Z,0.00
2023-03-10T02:52:38.774Z,0.00
2023-03-10T02:53:11.273Z,0.00
2023-03-10T02:53:43.778Z,0.00
2023-03-10T02:54:16.313Z,0.08
2023-03-10T02:54:48.771Z,0.08
2023-03-10T02:55:21.235Z,0.00
2023-03-10T02:55:53.706Z,0.00
2023-03-10T02:56:26.185Z,0.00
2023-03-10T02:56:58.656Z,0.00
2023-03-10T02:57:31.128Z,0.00
2023-03-10T02:58:03.596Z,0.08
2023-03-10T02:58:36.071Z,0.00
2023-03-10T02:59:08.556Z,0.00
2023-03-10T02:59:41.038Z,0.00
2023-03-10T03:00:13.507Z,0.00
2023-03-10T03:00:46.072Z,0.00
2023-03-10T03:01:18.588Z,0.00
2023-03-10T03:01:50.955Z,0.08
2023-03-10T03:02:23.429Z,0.00
2023-03-10T03:02:55.874Z,0.00
2023-03-10T03:03:28.359Z,0.32
2023-03-10T03:04:00.853Z,1.20
2023-03-10T03:04:33.281Z,0.00
2023-03-10T03:05:05.756Z,0.00
2023-03-10T03:05:38.307Z,0.00
2023-03-10T03:06:10.771Z,0.00
2023-03-10T03:06:43.237Z,0.08
2023-03-10T03:07:15.700Z,0.00
2023-03-10T03:07:48.169Z,0.00
2023-03-10T03:08:20.642Z,0.00
2023-03-10T03:08:53.227Z,0.00
2023-03-10T03:09:25.696Z,0.00
2023-03-10T03:09:58.139Z,0.00
2023-03-10T03:10:30.689Z,0.00
2023-03-10T03:11:03.126Z,0.00
2023-03-10T03:11:35.591Z,0.00
2023-03-10T03:12:08.049Z,0.00
2023-03-10T03:12:40.523Z,0.00
2023-03-10T03:13:13.032Z,0.00
2023-03-10T03:13:45.516Z,0.00
2023-03-10T03:14:19.519Z,0.00
2023-03-10T03:14:50.451Z,0.00
2023-03-10T03:15:22.930Z,0.00
2023-03-10T03:15:55.440Z,0.00
2023-03-10T03:16:27.934Z,0.00
2023-03-10T03:17:00.510Z,0.00
2023-03-10T03:17:32.803Z,0.00
2023-03-10T03:18:05.282Z,0.00
2023-03-10T03:18:37.750Z,0.00
2023-03-10T03:19:10.228Z,0.00
2023-03-10T03:19:42.754Z,0.00
2023-03-10T03:20:15.228Z,0.00
2023-03-10T03:20:47.678Z,0.00
2023-03-10T03:21:20.169Z,0.00
2023-03-10T03:21:52.647Z,0.00
2023-03-10T03:22:25.113Z,0.00
2023-03-10T03:22:57.615Z,0.00
2023-03-10T03:23:30.083Z,0.00
2023-03-10T03:24:02.541Z,0.00
2023-03-10T03:24:35.064Z,0.00
2023-03-10T03:25:07.524Z,0.00
2023-03-10T03:25:40.049Z,0.00
2023-03-10T03:26:12.561Z,0.00
2023-03-10T03:26:45.043Z,0.00
2023-03-10T03:27:17.655Z,0.00
2023-03-10T03:27:50.153Z,0.00
2023-03-10T03:28:22.700Z,0.00
2023-03-10T03:28:55.167Z,0.00
2023-03-10T03:29:27.688Z,0.00
2023-03-10T03:30:00.212Z,0.00
2023-03-10T03:30:34.149Z,0.00
2023-03-10T03:31:06.631Z,0.00
2023-03-10T03:31:39.120Z,0.00
2023-03-10T03:32:11.679Z,0.00
2023-03-10T03:32:44.038Z,0.00
2023-03-10T03:33:16.475Z,0.00
2023-03-10T03:33:48.935Z,0.00
2023-03-10T03:34:21.443Z,0.00
2023-03-10T03:34:53.892Z,0.00
2023-03-10T03:35:26.401Z,0.00
2023-03-10T03:35:58.868Z,0.00
2023-03-10T03:36:31.274Z,0.00
2023-03-10T03:37:03.742Z,0.00
2023-03-10T03:37:36.200Z,0.00
2023-03-10T03:38:08.696Z,0.00
2023-03-10T03:38:41.150Z,0.00
2023-03-10T03:39:13.690Z,0.00
2023-03-10T03:39:46.206Z,0.00
2023-03-10T03:40:18.574Z,0.00
2023-03-10T03:40:51.039Z,0.00
2023-03-10T03:41:23.483Z,0.00
2023-03-10T03:41:55.944Z,0.00
2023-03-10T03:42:28.449Z,0.00
2023-03-10T03:43:00.918Z,0.00
2023-03-10T03:43:33.375Z,0.00
2023-03-10T03:44:05.857Z,0.00
2023-03-10T03:44:38.339Z,0.00
2023-03-10T03:45:10.804Z,0.00
2023-03-10T03:45:43.304Z,0.00
2023-03-10T03:46:15.849Z,0.00
2023-03-10T03:46:48.191Z,0.00
2023-03-10T03:47:20.637Z,0.00
2023-03-10T03:47:53.105Z,0.00
2023-03-10T03:48:25.554Z,0.00
2023-03-10T03:48:58.009Z,0.00
2023-03-10T03:49:30.524Z,0.00
2023-03-10T03:50:02.967Z,0.00
2023-03-10T03:50:35.425Z,0.00
2023-03-10T03:51:07.922Z,0.00
2023-03-10T03:51:40.375Z,0.00
2023-03-10T03:52:12.856Z,0.00
2023-03-10T03:52:45.326Z,0.00
2023-03-10T03:53:17.780Z,0.00
2023-03-10T03:53:50.269Z,0.00
2023-03-10T03:54:22.790Z,0.00
2023-03-10T03:54:55.273Z,0.00
2023-03-10T03:55:27.727Z,0.00
2023-03-10T03:56:00.184Z,0.00
2023-03-10T03:56:32.672Z,0.00
2023-03-10T03:57:05.138Z,0.00
2023-03-10T03:57:37.602Z,0.00
2023-03-10T03:58:10.100Z,0.00
2023-03-10T03:58:42.598Z,0.00
2023-03-10T03:59:15.080Z,0.00
2023-03-10T03:59:47.558Z,0.00
2023-03-10T04:00:20.054Z,0.00
2023-03-10T04:00:52.496Z,0.00
2023-03-10T04:01:25.020Z,0.00
2023-03-10T04:01:57.563Z,0.00
2023-03-10T04:02:30.048Z,0.00
2023-03-10T04:03:02.425Z,0.00
2023-03-10T04:03:34.925Z,0.00
2023-03-10T04:04:07.388Z,0.00
2023-03-10T04:04:39.892Z,0.00
2023-03-10T04:05:12.379Z,0.00
2023-03-10T04:05:44.841Z,0.00
2023-03-10T04:06:17.311Z,0.00
2023-03-10T04:06:49.810Z,0.00
2023-03-10T04:07:22.309Z,0.00
2023-03-10T04:07:54.827Z,0.00
2023-03-10T04:08:27.276Z,0.00
2023-03-10T04:08:59.758Z,0.00
2023-03-10T04:09:32.263Z,0.00
2023-03-10T04:10:04.788Z,0.00
2023-03-10T04:10:37.206Z,0.00
2023-03-10T04:11:09.706Z,0.00
2023-03-10T04:11:42.173Z,0.00
2023-03-10T04:12:14.632Z,0.00
2023-03-10T04:12:47.103Z,0.00
2023-03-10T04:13:19.554Z,0.00
2023-03-10T04:13:52.060Z,0.00
2023-03-10T04:14:24.503Z,0.00
2023-03-10T04:14:56.977Z,0.00
2023-03-10T04:15:29.490Z,0.00
2023-03-10T04:16:01.991Z,0.00
2023-03-10T04:16:34.425Z,0.00
2023-03-10T04:17:06.901Z,0.00
2023-03-10T04:17:39.372Z,0.00
2023-03-10T04:18:11.919Z,0.00
2023-03-10T04:18:44.378Z,0.00
2023-03-10T04:19:16.851Z,0.00
2023-03-10T04:20:00.721Z,0.00
2023-03-10T04:20:21.784Z,0.00
2023-03-10T04:20:54.268Z,0.00
2023-03-10T04:21:26.722Z,0.00
2023-03-10T04:21:59.176Z,0.00
2023-03-10T04:22:31.620Z,0.00
2023-03-10T04:23:04.155Z,0.00
2023-03-10T04:23:36.614Z,0.00
2023-03-10T04:24:09.075Z,0.00
2023-03-10T04:24:41.520Z,0.00
2023-03-10T04:25:13.996Z,0.00
2023-03-10T04:25:46.454Z,0.00
2023-03-10T04:26:18.921Z,0.00
2023-03-10T04:26:51.378Z,0.00
2023-03-10T04:27:23.856Z,0.00
2023-03-10T04:27:56.309Z,0.00
2023-03-10T04:28:28.777Z,0.00
2023-03-10T04:29:01.244Z,0.00
2023-03-10T04:29:33.690Z,0.00
2023-03-10T04:30:06.153Z,0.00
2023-03-10T04:30:38.614Z,0.00
2023-03-10T04:31:11.144Z,0.00
2023-03-10T04:31:46.533Z,0.00
2023-03-10T04:32:16.060Z,0.00
2023-03-10T04:32:49.389Z,0.00
2023-03-10T04:33:20.952Z,0.00
2023-03-10T04:33:53.467Z,0.00
2023-03-10T04:34:25.919Z,0.00
2023-03-10T04:34:58.402Z,0.00
2023-03-10T04:35:30.852Z,0.00
2023-03-10T04:36:03.372Z,0.00
2023-03-10T04:36:35.774Z,0.00
2023-03-10T04:37:08.275Z,0.00
2023-03-10T04:37:40.735Z,0.00
2023-03-10T04:38:13.216Z,0.00
2023-03-10T04:38:45.682Z,0.00
2023-03-10T04:39:18.213Z,0.00
2023-03-10T04:39:50.718Z,0.00
2023-03-10T04:40:23.188Z,0.00
2023-03-10T04:40:55.645Z,0.00
2023-03-10T04:41:28.115Z,0.00
2023-03-10T04:42:00.585Z,0.00
2023-03-10T04:42:33.046Z,0.00
2023-03-10T04:43:05.542Z,0.00
2023-03-10T04:43:37.993Z,0.00
2023-03-10T04:44:24.372Z,0.00
2023-03-10T04:44:42.951Z,0.00
2023-03-10T04:45:15.396Z,0.00
2023-03-10T04:45:47.857Z,0.00
2023-03-10T04:46:20.388Z,0.00
2023-03-10T04:46:52.831Z,0.00
2023-03-10T04:47:25.317Z,0.00
2023-03-10T04:47:57.759Z,0.00
2023-03-10T04:48:30.277Z,0.00
2023-03-10T04:49:02.705Z,0.00
2023-03-10T04:49:35.175Z,0.00
2023-03-10T04:50:07.649Z,0.00
2023-03-10T04:50:40.128Z,0.00
2023-03-10T04:51:12.585Z,0.00
2023-03-10T04:51:45.089Z,0.00
2023-03-10T04:52:17.552Z,0.00
2023-03-10T04:52:50.068Z,0.00
2023-03-10T04:53:22.506Z,0.00
2023-03-10T04:53:54.984Z,0.00
2023-03-10T04:54:27.474Z,0.00
2023-03-10T04:54:59.950Z,0.00
2023-03-10T04:55:32.430Z,0.00
2023-03-10T04:56:04.952Z,0.00
2023-03-10T04:56:37.424Z,0.00
2023-03-10T04:57:09.878Z,0.00
2023-03-10T04:57:42.362Z,0.00
2023-03-10T04:58:14.851Z,0.00
2023-03-10T04:58:47.336Z,0.00
2023-03-10T04:59:19.787Z,0.00
2023-03-10T04:59:52.277Z,0.00
2023-03-10T05:00:24.829Z,0.00
2023-03-10T05:01:03.085Z,0.00
2023-03-10T05:01:29.695Z,0.00
2023-03-10T05:02:02.227Z,0.00
2023-03-10T05:02:34.628Z,0.00
2023-03-10T05:03:07.090Z,0.00
2023-03-10T05:03:39.666Z,0.00
2023-03-10T05:04:12.136Z,0.00
2023-03-10T05:04:44.681Z,0.00
2023-03-10T05:05:17.067Z,0.00
2023-03-10T05:05:49.525Z,0.00
2023-03-10T05:06:21.989Z,0.00
2023-03-10T05:06:54.461Z,0.00
2023-03-10T05:07:26.926Z,0.00
2023-03-10T05:07:59.380Z,0.00
2023-03-10T05:08:31.932Z,0.00
2023-03-10T05:09:04.380Z,0.00
2023-03-10T05:09:36.896Z,0.00
2023-03-10T05:10:09.361Z,0.00
2023-03-10T05:10:41.819Z,0.00
2023-03-10T05:11:14.317Z,0.00
2023-03-10T05:11:46.781Z,0.00
2023-03-10T05:12:19.248Z,0.00
2023-03-10T05:12:51.699Z,0.00
2023-03-10T05:13:24.165Z,0.00
2023-03-10T05:13:56.620Z,0.00
2023-03-10T05:14:29.083Z,0.00
2023-03-10T05:15:01.548Z,0.00
2023-03-10T05:15:34.027Z,0.00
2023-03-10T05:16:06.499Z,0.00
2023-03-10T05:16:38.952Z,0.00
2023-03-10T05:17:11.407Z,0.00
2023-03-10T05:17:43.869Z,0.00
2023-03-10T05:18:16.345Z,0.00
2023-03-10T05:18:48.796Z,0.00
2023-03-10T05:19:21.250Z,0.00
2023-03-10T05:19:53.708Z,0.00
2023-03-10T05:20:26.196Z,0.00
2023-03-10T05:20:58.654Z,0.00
2023-03-10T05:21:31.111Z,0.00
2023-03-10T05:22:03.570Z,0.00
2023-03-10T05:22:36.057Z,0.00
2023-03-10T05:23:08.536Z,0.00
2023-03-10T05:23:41.019Z,0.00
2023-03-10T05:24:13.463Z,0.00
2023-03-10T05:24:45.968Z,0.00
2023-03-10T05:25:18.472Z,0.00
2023-03-10T05:25:50.928Z,0.00
2023-03-10T05:26:23.418Z,0.00
2023-03-10T05:26:55.913Z,0.00
2023-03-10T05:27:28.390Z,0.00
2023-03-10T05:28:00.859Z,0.00
2023-03-10T05:28:33.325Z,0.00
2023-03-10T05:29:05.784Z,0.00
2023-03-10T05:29:38.245Z,0.00
2023-03-10T05:30:10.695Z,0.00
2023-03-10T05:30:43.165Z,0.00
2023-03-10T05:31:15.773Z,0.00
2023-03-10T05:31:48.331Z,0.00
2023-03-10T05:32:20.691Z,0.00
2023-03-10T05:32:53.178Z,0.00
2023-03-10T05:33:25.581Z,0.24
2023-03-10T05:33:58.081Z,0.00
2023-03-10T05:34:30.550Z,0.00
2023-03-10T05:35:03.075Z,0.00
2023-03-10T05:35:35.616Z,0.00
2023-03-10T05:36:08.176Z,0.08
2023-03-10T05:36:40.517Z,0.24
2023-03-10T05:37:13.067Z,0.00
2023-03-10T05:37:45.541Z,0.00
2023-03-10T05:38:18.021Z,0.00
2023-03-10T05:38:50.466Z,0.00
2023-03-10T05:39:22.937Z,0.00
2023-03-10T05:39:55.425Z,0.00
2023-03-10T05:40:27.904Z,0.00
2023-03-10T05:41:00.413Z,0.00
2023-03-10T05:41:32.874Z,0.00
2023-03-10T05:42:05.349Z,0.00
2023-03-10T05:42:48.499Z,0.08
2023-03-10T05:43:20.952Z,0.08
2023-03-10T05:43:53.392Z,0.00
2023-03-10T05:44:25.884Z,0.00
2023-03-10T05:44:58.378Z,0.00
2023-03-10T05:45:30.861Z,0.00
2023-03-10T05:46:03.373Z,0.00
2023-03-10T05:46:35.925Z,0.00
2023-03-10T05:47:09.280Z,0.00
2023-03-10T05:47:41.890Z,0.08
2023-03-10T05:48:14.380Z,0.00
2023-03-10T05:48:46.833Z,0.00
2023-03-10T05:49:19.388Z,0.16
2023-03-10T05:49:51.849Z,0.00
2023-03-10T05:50:24.353Z,0.16
2023-03-10T05:50:56.823Z,0.08
2023-03-10T05:51:29.349Z,0.08
2023-03-10T05:52:01.769Z,0.00
2023-03-10T05:52:34.238Z,0.24
2023-03-10T05:53:06.712Z,0.00
2023-03-10T05:53:39.164Z,0.16
2023-03-10T05:54:11.597Z,0.00
2023-03-10T05:54:44.038Z,0.00
2023-03-10T05:55:16.504Z,0.00
2023-03-10T05:55:48.934Z,0.00
2023-03-10T05:56:21.396Z,0.00
2023-03-10T05:56:53.816Z,0.00
2023-03-10T05:57:26.307Z,0.00
2023-03-10T05:57:58.763Z,0.00
2023-03-10T05:58:31.223Z,0.00
2023-03-10T05:59:03.644Z,0.00
2023-03-10T05:59:36.101Z,0.00
2023-03-10T06:00:08.558Z,0.00
2023-03-10T06:00:41.047Z,0.00
2023-03-10T06:01:13.685Z,0.00
2023-03-10T06:01:45.970Z,0.00
2023-03-10T06:02:18.417Z,0.00
2023-03-10T06:02:50.911Z,0.00
2023-03-10T06:03:23.520Z,0.00
2023-03-10T06:03:55.982Z,0.00
2023-03-10T06:04:28.514Z,0.00
2023-03-10T06:05:00.966Z,0.00
2023-03-10T06:05:33.439Z,0.00
2023-03-10T06:06:05.905Z,0.00
2023-03-10T06:06:38.376Z,0.00
2023-03-10T06:07:10.820Z,0.00
2023-03-10T06:07:43.315Z,0.00
2023-03-10T06:08:15.752Z,0.00
2023-03-10T06:08:48.184Z,0.00
2023-03-10T06:09:20.601Z,0.00
2023-03-10T06:09:53.067Z,0.00
2023-03-10T06:10:25.518Z,0.00
2023-03-10T06:10:57.983Z,0.00
2023-03-10T06:11:30.460Z,0.00
2023-03-10T06:12:02.911Z,0.00
2023-03-10T06:12:35.374Z,0.16
2023-03-10T06:13:07.816Z,0.00
2023-03-10T06:13:40.324Z,0.00
2023-03-10T06:14:12.821Z,0.00
2023-03-10T06:14:45.301Z,0.00
2023-03-10T06:15:17.765Z,0.16
2023-03-10T06:15:50.310Z,0.00
2023-03-10T06:16:22.808Z,0.00
2023-03-10T06:16:55.302Z,0.00
2023-03-10T06:17:27.815Z,0.00
2023-03-10T06:18:00.329Z,0.00
2023-03-10T06:18:32.846Z,0.00
2023-03-10T06:19:05.320Z,0.00
2023-03-10T06:19:37.795Z,0.00
2023-03-10T06:20:10.316Z,0.00
2023-03-10T06:20:42.760Z,0.00
2023-03-10T06:21:15.195Z,0.00
2023-03-10T06:21:47.665Z,0.00
2023-03-10T06:22:20.148Z,0.00
2023-03-10T06:22:52.636Z,0.08
2023-03-10T06:23:25.083Z,0.08
2023-03-10T06:23:57.577Z,0.00
2023-03-10T06:24:30.056Z,0.08
2023-03-10T06:25:02.502Z,0.08
2023-03-10T06:25:34.962Z,0.00
2023-03-10T06:26:07.388Z,0.00
2023-03-10T06:26:39.856Z,0.00
2023-03-10T06:27:12.299Z,0.00
2023-03-10T06:27:44.766Z,0.00
2023-03-10T06:28:17.211Z,0.00
2023-03-10T06:28:49.699Z,0.00
2023-03-10T06:29:22.187Z,0.00
2023-03-10T06:29:54.617Z,0.00
2023-03-10T06:30:27.070Z,1.84
2023-03-10T06:30:59.508Z,0.48
2023-03-10T06:31:31.989Z,0.24
2023-03-10T06:32:04.457Z,0.08
2023-03-10T06:32:36.918Z,0.00
2023-03-10T06:33:09.372Z,0.00
2023-03-10T06:33:41.829Z,0.00
2023-03-10T06:34:14.284Z,0.00
2023-03-10T06:34:47.415Z,0.00
2023-03-10T06:35:19.869Z,0.08
2023-03-10T06:35:52.392Z,0.08
2023-03-10T06:36:24.812Z,0.00
2023-03-10T06:36:57.254Z,0.00
2023-03-10T06:37:29.742Z,0.08
2023-03-10T06:38:02.192Z,0.08
2023-03-10T06:38:34.672Z,0.00
2023-03-10T06:39:07.139Z,0.08
2023-03-10T06:39:39.636Z,0.00
2023-03-10T06:40:12.149Z,0.24
2023-03-10T06:40:44.645Z,0.00
2023-03-10T06:41:17.106Z,0.00
2023-03-10T06:41:49.591Z,0.00
2023-03-10T06:42:22.116Z,0.00
2023-03-10T06:42:54.577Z,0.16
2023-03-10T06:43:27.046Z,0.00
2023-03-10T06:44:00.275Z,0.00
2023-03-10T06:44:32.741Z,1.76
2023-03-10T06:45:05.216Z,1.36
2023-03-10T06:45:37.713Z,0.24
2023-03-10T06:46:10.214Z,0.00
2023-03-10T06:46:42.692Z,0.00
2023-03-10T06:47:15.154Z,0.00
2023-03-10T06:47:47.594Z,0.32
2023-03-10T06:48:20.050Z,0.00
2023-03-10T06:48:52.497Z,0.00
2023-03-10T06:49:24.924Z,0.08
2023-03-10T06:49:57.354Z,0.08
2023-03-10T06:50:31.551Z,0.00
2023-03-10T06:51:02.310Z,0.00
2023-03-10T06:51:34.794Z,0.00
2023-03-10T06:52:07.288Z,0.00
2023-03-10T06:52:39.825Z,0.16
2023-03-10T06:53:12.319Z,0.08
2023-03-10T06:53:44.782Z,0.08
2023-03-10T06:54:17.222Z,0.48
2023-03-10T06:54:49.698Z,0.00
2023-03-10T06:55:22.189Z,0.00
2023-03-10T06:55:54.657Z,0.00
2023-03-10T06:56:27.126Z,0.08
2023-03-10T06:56:59.637Z,0.16
2023-03-10T06:57:32.136Z,0.00
2023-03-10T06:58:04.610Z,0.00
2023-03-10T06:58:37.115Z,0.00
2023-03-10T06:59:09.566Z,0.16
2023-03-10T06:59:42.051Z,0.00
2023-03-10T07:00:14.536Z,0.00
2023-03-10T07:00:47.023Z,0.00
2023-03-10T07:01:19.522Z,0.00
2023-03-10T07:01:51.959Z,0.00
2023-03-10T07:02:24.412Z,0.00
2023-03-10T07:02:56.857Z,0.16
2023-03-10T07:03:29.348Z,0.08
2023-03-10T07:04:01.775Z,0.24
2023-03-10T07:04:34.285Z,0.00
2023-03-10T07:05:06.779Z,0.00
2023-03-10T07:05:39.149Z,0.00
2023-03-10T07:06:11.610Z,0.00
2023-03-10T07:06:44.086Z,0.00
2023-03-10T07:07:16.581Z,0.00
2023-03-10T07:07:49.054Z,0.00
2023-03-10T07:08:21.532Z,0.24
2023-03-10T07:08:54.002Z,0.00
2023-03-10T07:09:26.463Z,0.08
2023-03-10T07:09:58.915Z,0.56
2023-03-10T07:10:31.410Z,0.08
2023-03-10T07:11:03.882Z,0.00
2023-03-10T07:11:36.351Z,0.00
2023-03-10T07:12:08.817Z,0.00
2023-03-10T07:12:41.316Z,0.00